sensor_id;sensor_type;location;lat;lon;timestamp;P1;durP1;ratioP1;P2;durP2;ratioP2
55537;SDS011;41383;51.418;7.286;2023-04-01T00:01:59;1.67;;;0.60;;
55537;SDS011;41383;51.418;7.286;2023-04-01T00:04:25;8.18;;;0.80;;
55537;SDS011;41383;51.418;7.286;2023-04-01T00:06:50;3.90;;;0.93;;
55537;SDS011;41383;51.418;7.286;2023-04-01T00:09:16;2.70;;;0.82;;
55537;SDS011;41383;51.418;7.286;2023-04-01T00:11:42;1.20;;;0.47;;
55537;SDS011;41383;51.418;7.286;2023-04-01T00:14:07;2.38;;;0.75;;
55537;SDS011;41383;51.418;7.286;2023-04-01T00:16:33;3.15;;;0.50;;
55537;SDS011;41383;51.418;7.286;2023-04-01T00:18:58;2.70;;;0.85;;
55537;SDS011;41383;51.418;7.286;2023-04-01T00:21:24;2.30;;;0.52;;
55537;SDS011;41383;51.418;7.286;2023-04-01T00:23:50;2.17;;;0.60;;
55537;SDS011;41383;51.418;7.286;2023-04-01T00:26:16;2.58;;;0.50;;
55537;SDS011;41383;51.418;7.286;2023-04-01T00:28:44;2.70;;;1.15;;
55537;SDS011;41383;51.418;7.286;2023-04-01T00:31:10;2.25;;;0.82;;
55537;SDS011;41383;51.418;7.286;2023-04-01T00:33:36;1.80;;;0.60;;
55537;SDS011;41383;51.418;7.286;2023-04-01T00:36:09;2.92;;;1.05;;
55537;SDS011;41383;51.418;7.286;2023-04-01T00:41:01;2.10;;;0.73;;
55537;SDS011;41383;51.418;7.286;2023-04-01T00:43:26;2.00;;;0.52;;
55537;SDS011;41383;51.418;7.286;2023-04-01T00:45:52;2.22;;;1.15;;
55537;SDS011;41383;51.418;7.286;2023-04-01T00:48:18;3.00;;;0.60;;
55537;SDS011;41383;51.418;7.286;2023-04-01T00:50:49;1.42;;;0.50;;
55537;SDS011;41383;51.418;7.286;2023-04-01T00:53:17;8.18;;;1.23;;
55537;SDS011;41383;51.418;7.286;2023-04-01T00:55:47;2.88;;;0.77;;
55537;SDS011;41383;51.418;7.286;2023-04-01T00:58:17;8.68;;;0.82;;
55537;SDS011;41383;51.418;7.286;2023-04-01T01:00:46;1.17;;;0.57;;
55537;SDS011;41383;51.418;7.286;2023-04-01T01:03:13;2.75;;;0.68;;
55537;SDS011;41383;51.418;7.286;2023-04-01T01:11:38;6.68;;;0.60;;
55537;SDS011;41383;51.418;7.286;2023-04-01T01:20:24;2.47;;;0.65;;
55537;SDS011;41383;51.418;7.286;2023-04-01T01:29:09;0.57;;;0.40;;
55537;SDS011;41383;51.418;7.286;2023-04-01T01:32:03;4.03;;;0.80;;
55537;SDS011;41383;51.418;7.286;2023-04-01T01:34:41;2.13;;;0.60;;
55537;SDS011;41383;51.418;7.286;2023-04-01T01:37:10;0.93;;;0.40;;
55537;SDS011;41383;51.418;7.286;2023-04-01T01:39:39;4.60;;;0.95;;
55537;SDS011;41383;51.418;7.286;2023-04-01T01:42:08;1.45;;;0.60;;
55537;SDS011;41383;51.418;7.286;2023-04-01T01:44:38;1.55;;;0.80;;
55537;SDS011;41383;51.418;7.286;2023-04-01T01:47:05;4.07;;;1.10;;
55537;SDS011;41383;51.418;7.286;2023-04-01T01:49:31;1.38;;;0.65;;
55537;SDS011;41383;51.418;7.286;2023-04-01T01:51:58;2.35;;;0.75;;
55537;SDS011;41383;51.418;7.286;2023-04-01T01:54:24;1.27;;;0.65;;
55537;SDS011;41383;51.418;7.286;2023-04-01T01:56:51;2.70;;;0.63;;
55537;SDS011;41383;51.418;7.286;2023-04-01T01:59:22;3.20;;;0.57;;
55537;SDS011;41383;51.418;7.286;2023-04-01T02:01:51;1.50;;;0.57;;
55537;SDS011;41383;51.418;7.286;2023-04-01T02:04:20;3.15;;;0.68;;
55537;SDS011;41383;51.418;7.286;2023-04-01T02:06:52;3.05;;;0.60;;
55537;SDS011;41383;51.418;7.286;2023-04-01T02:09:20;1.15;;;0.50;;
55537;SDS011;41383;51.418;7.286;2023-04-01T02:11:54;1.17;;;0.65;;
55537;SDS011;41383;51.418;7.286;2023-04-01T02:14:23;1.73;;;0.50;;
55537;SDS011;41383;51.418;7.286;2023-04-01T02:19:58;1.30;;;0.70;;
55537;SDS011;41383;51.418;7.286;2023-04-01T02:22:29;4.32;;;1.52;;
55537;SDS011;41383;51.418;7.286;2023-04-01T02:24:59;1.95;;;1.25;;
55537;SDS011;41383;51.418;7.286;2023-04-01T02:27:29;2.30;;;0.57;;
55537;SDS011;41383;51.418;7.286;2023-04-01T02:29:56;2.83;;;0.80;;
55537;SDS011;41383;51.418;7.286;2023-04-01T02:32:22;2.78;;;0.55;;
55537;SDS011;41383;51.418;7.286;2023-04-01T02:34:48;1.15;;;0.70;;
55537;SDS011;41383;51.418;7.286;2023-04-01T02:37:14;1.58;;;0.47;;
55537;SDS011;41383;51.418;7.286;2023-04-01T02:39:40;1.10;;;0.35;;
55537;SDS011;41383;51.418;7.286;2023-04-01T02:42:07;1.20;;;0.40;;
55537;SDS011;41383;51.418;7.286;2023-04-01T02:44:33;0.70;;;0.20;;
55537;SDS011;41383;51.418;7.286;2023-04-01T02:46:58;1.33;;;0.43;;
55537;SDS011;41383;51.418;7.286;2023-04-01T02:49:23;0.73;;;0.20;;
55537;SDS011;41383;51.418;7.286;2023-04-01T02:51:48;2.20;;;0.87;;
55537;SDS011;41383;51.418;7.286;2023-04-01T02:54:14;2.20;;;0.28;;
55537;SDS011;41383;51.418;7.286;2023-04-01T02:56:39;1.15;;;0.35;;
55537;SDS011;41383;51.418;7.286;2023-04-01T02:59:04;3.40;;;0.47;;
55537;SDS011;41383;51.418;7.286;2023-04-01T03:01:30;1.70;;;0.47;;
55537;SDS011;41383;51.418;7.286;2023-04-01T03:03:55;1.03;;;0.27;;
55537;SDS011;41383;51.418;7.286;2023-04-01T03:06:20;0.60;;;0.30;;
55537;SDS011;41383;51.418;7.286;2023-04-01T03:08:46;1.42;;;0.60;;
55537;SDS011;41383;51.418;7.286;2023-04-01T03:11:11;0.40;;;0.20;;
55537;SDS011;41383;51.418;7.286;2023-04-01T03:13:37;1.42;;;0.50;;
55537;SDS011;41383;51.418;7.286;2023-04-01T03:16:02;2.67;;;0.40;;
55537;SDS011;41383;51.418;7.286;2023-04-01T03:18:27;0.85;;;0.25;;
55537;SDS011;41383;51.418;7.286;2023-04-01T03:20:53;1.37;;;0.47;;
55537;SDS011;41383;51.418;7.286;2023-04-01T03:23:18;1.05;;;0.30;;
55537;SDS011;41383;51.418;7.286;2023-04-01T03:25:46;0.60;;;0.15;;
55537;SDS011;41383;51.418;7.286;2023-04-01T03:28:11;1.02;;;0.30;;
55537;SDS011;41383;51.418;7.286;2023-04-01T03:30:38;2.28;;;0.30;;
55537;SDS011;41383;51.418;7.286;2023-04-01T03:33:03;1.77;;;0.30;;
55537;SDS011;41383;51.418;7.286;2023-04-01T03:35:28;1.58;;;0.25;;
55537;SDS011;41383;51.418;7.286;2023-04-01T03:37:54;0.17;;;0.10;;
55537;SDS011;41383;51.418;7.286;2023-04-01T03:40:20;0.55;;;0.10;;
55537;SDS011;41383;51.418;7.286;2023-04-01T03:42:46;0.65;;;0.20;;
55537;SDS011;41383;51.418;7.286;2023-04-01T03:45:11;1.10;;;0.50;;
55537;SDS011;41383;51.418;7.286;2023-04-01T03:47:37;0.68;;;0.30;;
55537;SDS011;41383;51.418;7.286;2023-04-01T03:50:03;1.63;;;0.60;;
55537;SDS011;41383;51.418;7.286;2023-04-01T03:52:31;1.17;;;0.40;;
55537;SDS011;41383;51.418;7.286;2023-04-01T03:54:56;0.73;;;0.28;;
55537;SDS011;41383;51.418;7.286;2023-04-01T03:57:22;2.20;;;0.38;;
55537;SDS011;41383;51.418;7.286;2023-04-01T03:59:47;0.55;;;0.32;;
55537;SDS011;41383;51.418;7.286;2023-04-01T04:02:12;0.60;;;0.30;;
55537;SDS011;41383;51.418;7.286;2023-04-01T04:04:38;0.63;;;0.23;;
55537;SDS011;41383;51.418;7.286;2023-04-01T04:07:03;1.07;;;0.63;;
55537;SDS011;41383;51.418;7.286;2023-04-01T04:09:31;1.08;;;0.55;;
55537;SDS011;41383;51.418;7.286;2023-04-01T04:11:58;2.67;;;0.95;;
55537;SDS011;41383;51.418;7.286;2023-04-01T04:14:23;0.93;;;0.38;;
55537;SDS011;41383;51.418;7.286;2023-04-01T04:16:49;1.10;;;0.52;;
55537;SDS011;41383;51.418;7.286;2023-04-01T04:19:14;0.87;;;0.53;;
55537;SDS011;41383;51.418;7.286;2023-04-01T04:21:40;4.07;;;0.77;;
55537;SDS011;41383;51.418;7.286;2023-04-01T04:24:06;1.58;;;0.60;;
55537;SDS011;41383;51.418;7.286;2023-04-01T04:26:32;1.33;;;0.35;;
55537;SDS011;41383;51.418;7.286;2023-04-01T04:28:58;1.67;;;0.60;;
55537;SDS011;41383;51.418;7.286;2023-04-01T04:31:24;3.30;;;1.67;;
55537;SDS011;41383;51.418;7.286;2023-04-01T04:33:50;1.38;;;0.70;;
55537;SDS011;41383;51.418;7.286;2023-04-01T04:36:16;1.33;;;0.68;;
55537;SDS011;41383;51.418;7.286;2023-04-01T04:38:42;2.92;;;0.95;;
55537;SDS011;41383;51.418;7.286;2023-04-01T04:41:11;5.63;;;1.95;;
55537;SDS011;41383;51.418;7.286;2023-04-01T04:43:37;4.85;;;1.88;;
55537;SDS011;41383;51.418;7.286;2023-04-01T04:46:07;2.85;;;1.77;;
55537;SDS011;41383;51.418;7.286;2023-04-01T04:48:33;2.72;;;0.70;;
55537;SDS011;41383;51.418;7.286;2023-04-01T04:50:59;1.05;;;0.63;;
55537;SDS011;41383;51.418;7.286;2023-04-01T04:53:25;2.55;;;0.63;;
55537;SDS011;41383;51.418;7.286;2023-04-01T04:55:51;2.45;;;0.60;;
55537;SDS011;41383;51.418;7.286;2023-04-01T04:58:16;0.90;;;0.50;;
55537;SDS011;41383;51.418;7.286;2023-04-01T05:00:42;1.02;;;0.55;;
55537;SDS011;41383;51.418;7.286;2023-04-01T05:03:08;0.70;;;0.40;;
55537;SDS011;41383;51.418;7.286;2023-04-01T05:05:35;1.48;;;0.70;;
55537;SDS011;41383;51.418;7.286;2023-04-01T05:08:00;1.27;;;0.60;;
55537;SDS011;41383;51.418;7.286;2023-04-01T05:10:26;0.88;;;0.52;;
55537;SDS011;41383;51.418;7.286;2023-04-01T05:12:51;3.15;;;1.05;;
55537;SDS011;41383;51.418;7.286;2023-04-01T05:15:16;2.08;;;0.80;;
55537;SDS011;41383;51.418;7.286;2023-04-01T05:17:41;0.80;;;0.40;;
55537;SDS011;41383;51.418;7.286;2023-04-01T05:20:07;0.65;;;0.50;;
55537;SDS011;41383;51.418;7.286;2023-04-01T05:22:33;1.27;;;0.70;;
55537;SDS011;41383;51.418;7.286;2023-04-01T05:24:58;0.70;;;0.40;;
55537;SDS011;41383;51.418;7.286;2023-04-01T05:27:23;1.92;;;0.85;;
55537;SDS011;41383;51.418;7.286;2023-04-01T05:29:49;0.93;;;0.47;;
55537;SDS011;41383;51.418;7.286;2023-04-01T05:32:14;1.10;;;0.50;;
55537;SDS011;41383;51.418;7.286;2023-04-01T05:34:40;0.52;;;0.40;;
55537;SDS011;41383;51.418;7.286;2023-04-01T05:37:05;1.52;;;0.63;;
55537;SDS011;41383;51.418;7.286;2023-04-01T05:39:35;0.88;;;0.40;;
55537;SDS011;41383;51.418;7.286;2023-04-01T05:42:01;0.80;;;0.50;;
55537;SDS011;41383;51.418;7.286;2023-04-01T05:44:26;1.08;;;0.60;;
55537;SDS011;41383;51.418;7.286;2023-04-01T05:46:51;1.53;;;0.63;;
55537;SDS011;41383;51.418;7.286;2023-04-01T05:49:17;0.67;;;0.50;;
55537;SDS011;41383;51.418;7.286;2023-04-01T05:51:42;1.90;;;0.70;;
55537;SDS011;41383;51.418;7.286;2023-04-01T05:54:07;2.25;;;0.50;;
55537;SDS011;41383;51.418;7.286;2023-04-01T05:56:33;3.80;;;0.60;;
55537;SDS011;41383;51.418;7.286;2023-04-01T05:58:58;1.63;;;0.40;;
55537;SDS011;41383;51.418;7.286;2023-04-01T06:01:23;1.10;;;0.50;;
55537;SDS011;41383;51.418;7.286;2023-04-01T06:03:49;0.60;;;0.30;;
55537;SDS011;41383;51.418;7.286;2023-04-01T06:06:15;1.48;;;0.60;;
55537;SDS011;41383;51.418;7.286;2023-04-01T06:08:48;2.08;;;0.50;;
55537;SDS011;41383;51.418;7.286;2023-04-01T06:11:28;1.33;;;0.47;;
55537;SDS011;41383;51.418;7.286;2023-04-01T06:16:54;0.85;;;0.40;;
55537;SDS011;41383;51.418;7.286;2023-04-01T06:19:46;1.23;;;0.60;;
55537;SDS011;41383;51.418;7.286;2023-04-01T06:22:45;0.80;;;0.45;;
55537;SDS011;41383;51.418;7.286;2023-04-01T06:28:16;0.75;;;0.50;;
55537;SDS011;41383;51.418;7.286;2023-04-01T06:31:10;1.60;;;0.57;;
55537;SDS011;41383;51.418;7.286;2023-04-01T06:39:17;1.00;;;0.28;;
55537;SDS011;41383;51.418;7.286;2023-04-01T06:47:33;0.80;;;0.40;;
55537;SDS011;41383;51.418;7.286;2023-04-01T06:50:24;0.52;;;0.30;;
55537;SDS011;41383;51.418;7.286;2023-04-01T06:55:55;2.67;;;0.20;;
55537;SDS011;41383;51.418;7.286;2023-04-01T06:58:26;2.22;;;0.57;;
55537;SDS011;41383;51.418;7.286;2023-04-01T07:00:57;1.27;;;0.30;;
55537;SDS011;41383;51.418;7.286;2023-04-01T07:03:39;0.80;;;0.30;;
55537;SDS011;41383;51.418;7.286;2023-04-01T07:06:10;1.65;;;0.40;;
55537;SDS011;41383;51.418;7.286;2023-04-01T07:08:45;1.20;;;0.40;;
55537;SDS011;41383;51.418;7.286;2023-04-01T07:11:11;3.47;;;0.95;;
55537;SDS011;41383;51.418;7.286;2023-04-01T07:13:48;0.47;;;0.30;;
55537;SDS011;41383;51.418;7.286;2023-04-01T07:16:25;1.50;;;0.75;;
55537;SDS011;41383;51.418;7.286;2023-04-01T07:21:46;1.40;;;0.75;;
55537;SDS011;41383;51.418;7.286;2023-04-01T07:24:26;3.38;;;0.60;;
55537;SDS011;41383;51.418;7.286;2023-04-01T07:26:56;1.23;;;0.52;;
55537;SDS011;41383;51.418;7.286;2023-04-01T07:29:22;3.33;;;0.50;;
55537;SDS011;41383;51.418;7.286;2023-04-01T07:37:28;4.78;;;0.65;;
55537;SDS011;41383;51.418;7.286;2023-04-01T07:46:28;1.15;;;0.57;;
55537;SDS011;41383;51.418;7.286;2023-04-01T07:49:14;1.77;;;0.50;;
55537;SDS011;41383;51.418;7.286;2023-04-01T07:57:05;0.55;;;0.35;;
55537;SDS011;41383;51.418;7.286;2023-04-01T07:59:39;0.43;;;0.20;;
55537;SDS011;41383;51.418;7.286;2023-04-01T08:02:38;1.33;;;0.80;;
55537;SDS011;41383;51.418;7.286;2023-04-01T08:05:25;1.00;;;0.50;;
55537;SDS011;41383;51.418;7.286;2023-04-01T08:10:40;1.77;;;0.60;;
55537;SDS011;41383;51.418;7.286;2023-04-01T08:19:06;1.20;;;0.68;;
55537;SDS011;41383;51.418;7.286;2023-04-01T08:21:52;2.08;;;0.88;;
55537;SDS011;41383;51.418;7.286;2023-04-01T08:27:31;1.15;;;0.28;;
55537;SDS011;41383;51.418;7.286;2023-04-01T08:30:18;1.35;;;0.63;;
55537;SDS011;41383;51.418;7.286;2023-04-01T08:32:59;4.15;;;1.08;;
55537;SDS011;41383;51.418;7.286;2023-04-01T08:35:34;1.15;;;0.55;;
55537;SDS011;41383;51.418;7.286;2023-04-01T08:38:09;1.02;;;0.45;;
55537;SDS011;41383;51.418;7.286;2023-04-01T08:40:59;1.45;;;0.50;;
55537;SDS011;41383;51.418;7.286;2023-04-01T08:49:28;1.48;;;0.93;;
55537;SDS011;41383;51.418;7.286;2023-04-01T08:52:15;2.67;;;0.68;;
55537;SDS011;41383;51.418;7.286;2023-04-01T09:23:20;2.42;;;1.05;;
55537;SDS011;41383;51.418;7.286;2023-04-01T09:26:21;1.17;;;0.70;;
55537;SDS011;41383;51.418;7.286;2023-04-01T09:32:11;1.92;;;1.02;;
55537;SDS011;41383;51.418;7.286;2023-04-01T09:34:57;2.03;;;1.33;;
55537;SDS011;41383;51.418;7.286;2023-04-01T09:45:53;3.28;;;1.63;;
55537;SDS011;41383;51.418;7.286;2023-04-01T09:48:59;5.32;;;2.10;;
55537;SDS011;41383;51.418;7.286;2023-04-01T09:51:49;5.07;;;2.17;;
55537;SDS011;41383;51.418;7.286;2023-04-01T09:54:28;3.55;;;1.65;;
55537;SDS011;41383;51.418;7.286;2023-04-01T09:57:13;4.78;;;2.20;;
55537;SDS011;41383;51.418;7.286;2023-04-01T10:20:30;4.90;;;2.50;;
55537;SDS011;41383;51.418;7.286;2023-04-01T10:26:03;6.70;;;3.43;;
55537;SDS011;41383;51.418;7.286;2023-04-01T10:28:42;6.97;;;2.88;;
55537;SDS011;41383;51.418;7.286;2023-04-01T10:56:36;4.85;;;2.30;;
55537;SDS011;41383;51.418;7.286;2023-04-01T10:59:11;6.65;;;2.67;;
55537;SDS011;41383;51.418;7.286;2023-04-01T11:01:44;5.20;;;1.93;;
55537;SDS011;41383;51.418;7.286;2023-04-01T11:07:40;8.70;;;2.75;;
55537;SDS011;41383;51.418;7.286;2023-04-01T11:41:13;4.60;;;2.55;;
55537;SDS011;41383;51.418;7.286;2023-04-01T11:58:11;9.82;;;4.20;;
55537;SDS011;41383;51.418;7.286;2023-04-01T12:06:30;3.53;;;1.90;;
55537;SDS011;41383;51.418;7.286;2023-04-01T12:35:59;2.58;;;1.55;;
55537;SDS011;41383;51.418;7.286;2023-04-01T12:46:59;4.90;;;1.90;;
55537;SDS011;41383;51.418;7.286;2023-04-01T12:52:19;5.60;;;1.80;;
55537;SDS011;41383;51.418;7.286;2023-04-01T13:01:09;3.88;;;1.42;;
55537;SDS011;41383;51.418;7.286;2023-04-01T13:11:55;6.50;;;2.92;;
55537;SDS011;41383;51.418;7.286;2023-04-01T13:14:34;5.82;;;3.08;;
55537;SDS011;41383;51.418;7.286;2023-04-01T13:17:23;4.80;;;2.05;;
55537;SDS011;41383;51.418;7.286;2023-04-01T13:22:45;10.52;;;4.38;;
55537;SDS011;41383;51.418;7.286;2023-04-01T13:28:30;16.17;;;4.57;;
55537;SDS011;41383;51.418;7.286;2023-04-01T13:31:20;6.05;;;3.65;;
55537;SDS011;41383;51.418;7.286;2023-04-01T13:34:02;8.48;;;3.92;;
55537;SDS011;41383;51.418;7.286;2023-04-01T13:39:39;16.45;;;4.53;;
55537;SDS011;41383;51.418;7.286;2023-04-01T13:42:16;7.15;;;3.42;;
55537;SDS011;41383;51.418;7.286;2023-04-01T13:44:57;6.90;;;3.50;;
55537;SDS011;41383;51.418;7.286;2023-04-01T13:53:21;6.68;;;3.47;;
55537;SDS011;41383;51.418;7.286;2023-04-01T13:56:07;5.47;;;2.60;;
55537;SDS011;41383;51.418;7.286;2023-04-01T14:04:58;5.38;;;2.50;;
55537;SDS011;41383;51.418;7.286;2023-04-01T14:07:59;4.53;;;1.95;;
55537;SDS011;41383;51.418;7.286;2023-04-01T14:13:43;6.25;;;1.90;;
55537;SDS011;41383;51.418;7.286;2023-04-01T14:22:10;3.78;;;1.77;;
55537;SDS011;41383;51.418;7.286;2023-04-01T14:24:49;4.07;;;2.35;;
55537;SDS011;41383;51.418;7.286;2023-04-01T14:32:43;4.57;;;1.98;;
55537;SDS011;41383;51.418;7.286;2023-04-01T14:43:54;6.05;;;2.55;;
55537;SDS011;41383;51.418;7.286;2023-04-01T14:46:58;9.85;;;2.70;;
55537;SDS011;41383;51.418;7.286;2023-04-01T14:49:22;5.50;;;2.25;;
55537;SDS011;41383;51.418;7.286;2023-04-01T14:51:55;6.28;;;2.85;;
55537;SDS011;41383;51.418;7.286;2023-04-01T14:54:32;11.10;;;3.63;;
55537;SDS011;41383;51.418;7.286;2023-04-01T14:57:08;6.90;;;2.95;;
55537;SDS011;41383;51.418;7.286;2023-04-01T14:59:39;4.97;;;2.33;;
55537;SDS011;41383;51.418;7.286;2023-04-01T15:04:46;6.47;;;2.72;;
55537;SDS011;41383;51.418;7.286;2023-04-01T15:10:23;8.10;;;2.55;;
55537;SDS011;41383;51.418;7.286;2023-04-01T15:27:42;9.02;;;4.10;;
55537;SDS011;41383;51.418;7.286;2023-04-01T15:30:27;6.35;;;3.42;;
55537;SDS011;41383;51.418;7.286;2023-04-01T15:46:14;7.07;;;3.90;;
55537;SDS011;41383;51.418;7.286;2023-04-01T15:52:03;9.10;;;3.58;;
55537;SDS011;41383;51.418;7.286;2023-04-01T16:03:30;9.10;;;4.47;;
55537;SDS011;41383;51.418;7.286;2023-04-01T16:11:17;8.73;;;4.80;;
55537;SDS011;41383;51.418;7.286;2023-04-01T16:13:53;10.10;;;5.18;;
55537;SDS011;41383;51.418;7.286;2023-04-01T16:19:47;9.25;;;4.18;;
55537;SDS011;41383;51.418;7.286;2023-04-01T16:22:23;7.55;;;3.92;;
55537;SDS011;41383;51.418;7.286;2023-04-01T16:30:45;7.28;;;3.60;;
55537;SDS011;41383;51.418;7.286;2023-04-01T16:36:39;6.03;;;3.15;;
55537;SDS011;41383;51.418;7.286;2023-04-01T16:44:31;6.45;;;3.35;;
55537;SDS011;41383;51.418;7.286;2023-04-01T16:47:14;5.35;;;2.22;;
55537;SDS011;41383;51.418;7.286;2023-04-01T16:49:46;4.22;;;2.35;;
55537;SDS011;41383;51.418;7.286;2023-04-01T16:55:16;4.57;;;2.47;;
55537;SDS011;41383;51.418;7.286;2023-04-01T16:57:51;5.47;;;2.00;;
55537;SDS011;41383;51.418;7.286;2023-04-01T17:00:24;8.15;;;3.10;;
55537;SDS011;41383;51.418;7.286;2023-04-01T17:03:38;7.03;;;3.38;;
55537;SDS011;41383;51.418;7.286;2023-04-01T17:11:47;7.38;;;3.40;;
55537;SDS011;41383;51.418;7.286;2023-04-01T17:17:06;9.50;;;5.07;;
55537;SDS011;41383;51.418;7.286;2023-04-01T17:19:59;6.32;;;2.75;;
55537;SDS011;41383;51.418;7.286;2023-04-01T17:25:48;5.07;;;3.03;;
55537;SDS011;41383;51.418;7.286;2023-04-01T17:36:51;6.45;;;3.50;;
55537;SDS011;41383;51.418;7.286;2023-04-01T17:39:26;8.23;;;4.22;;
55537;SDS011;41383;51.418;7.286;2023-04-01T17:47:16;8.23;;;4.28;;
55537;SDS011;41383;51.418;7.286;2023-04-01T17:52:56;8.20;;;4.47;;
55537;SDS011;41383;51.418;7.286;2023-04-01T18:01:21;6.82;;;3.47;;
55537;SDS011;41383;51.418;7.286;2023-04-01T18:04:07;7.28;;;3.55;;
55537;SDS011;41383;51.418;7.286;2023-04-01T18:12:51;12.00;;;6.20;;
55537;SDS011;41383;51.418;7.286;2023-04-01T18:18:11;7.47;;;3.90;;
55537;SDS011;41383;51.418;7.286;2023-04-01T18:20:58;8.85;;;4.95;;
55537;SDS011;41383;51.418;7.286;2023-04-01T18:26:08;10.55;;;5.25;;
55537;SDS011;41383;51.418;7.286;2023-04-01T18:31:43;11.27;;;4.68;;
55537;SDS011;41383;51.418;7.286;2023-04-01T18:34:15;7.32;;;3.78;;
55537;SDS011;41383;51.418;7.286;2023-04-01T18:37:02;8.23;;;3.97;;
55537;SDS011;41383;51.418;7.286;2023-04-01T18:39:40;10.38;;;4.40;;
55537;SDS011;41383;51.418;7.286;2023-04-01T18:47:19;10.68;;;5.25;;
55537;SDS011;41383;51.418;7.286;2023-04-01T18:52:42;12.07;;;4.85;;
55537;SDS011;41383;51.418;7.286;2023-04-01T18:57:55;13.48;;;6.85;;
55537;SDS011;41383;51.418;7.286;2023-04-01T19:00:38;14.38;;;5.57;;
55537;SDS011;41383;51.418;7.286;2023-04-01T19:05:42;12.27;;;6.63;;
55537;SDS011;41383;51.418;7.286;2023-04-01T19:08:17;12.60;;;7.07;;
55537;SDS011;41383;51.418;7.286;2023-04-01T19:17:02;14.35;;;7.43;;
55537;SDS011;41383;51.418;7.286;2023-04-01T19:19:34;8.77;;;4.72;;
55537;SDS011;41383;51.418;7.286;2023-04-01T19:22:25;8.90;;;5.20;;
55537;SDS011;41383;51.418;7.286;2023-04-01T19:25:13;11.25;;;5.22;;
55537;SDS011;41383;51.418;7.286;2023-04-01T19:27:42;11.32;;;5.63;;
55537;SDS011;41383;51.418;7.286;2023-04-01T19:30:36;12.32;;;7.93;;
55537;SDS011;41383;51.418;7.286;2023-04-01T19:33:22;11.52;;;6.00;;
55537;SDS011;41383;51.418;7.286;2023-04-01T19:35:55;8.35;;;4.93;;
55537;SDS011;41383;51.418;7.286;2023-04-01T19:38:54;9.15;;;5.30;;
55537;SDS011;41383;51.418;7.286;2023-04-01T19:41:39;8.23;;;5.13;;
55537;SDS011;41383;51.418;7.286;2023-04-01T19:49:49;3.88;;;1.80;;
55537;SDS011;41383;51.418;7.286;2023-04-01T19:55:17;4.05;;;1.15;;
55537;SDS011;41383;51.418;7.286;2023-04-01T19:57:55;7.40;;;2.67;;
55537;SDS011;41383;51.418;7.286;2023-04-01T20:00:51;4.88;;;2.03;;
55537;SDS011;41383;51.418;7.286;2023-04-01T20:06:14;4.18;;;2.28;;
55537;SDS011;41383;51.418;7.286;2023-04-01T20:19:55;9.70;;;5.43;;
55537;SDS011;41383;51.418;7.286;2023-04-01T20:27:50;5.95;;;3.15;;
55537;SDS011;41383;51.418;7.286;2023-04-01T20:33:15;37.30;;;20.15;;
55537;SDS011;41383;51.418;7.286;2023-04-01T20:41:49;36.10;;;16.20;;
55537;SDS011;41383;51.418;7.286;2023-04-01T20:47:45;13.10;;;7.35;;
55537;SDS011;41383;51.418;7.286;2023-04-01T20:50:58;16.38;;;9.70;;
55537;SDS011;41383;51.418;7.286;2023-04-01T20:58:21;13.32;;;8.57;;
55537;SDS011;41383;51.418;7.286;2023-04-01T21:03:36;11.60;;;7.07;;
55537;SDS011;41383;51.418;7.286;2023-04-01T21:06:15;6.95;;;4.20;;
55537;SDS011;41383;51.418;7.286;2023-04-01T21:12:21;5.60;;;3.13;;
55537;SDS011;41383;51.418;7.286;2023-04-01T21:31:21;4.22;;;2.42;;
55537;SDS011;41383;51.418;7.286;2023-04-01T21:42:41;5.47;;;2.80;;
55537;SDS011;41383;51.418;7.286;2023-04-01T21:45:37;2.70;;;1.55;;
55537;SDS011;41383;51.418;7.286;2023-04-01T21:48:23;5.80;;;2.67;;
55537;SDS011;41383;51.418;7.286;2023-04-01T21:56:57;5.40;;;3.10;;
55537;SDS011;41383;51.418;7.286;2023-04-01T22:02:50;4.55;;;2.55;;
55537;SDS011;41383;51.418;7.286;2023-04-01T22:05:40;3.72;;;1.83;;
55537;SDS011;41383;51.418;7.286;2023-04-01T22:13:41;4.35;;;2.15;;
55537;SDS011;41383;51.418;7.286;2023-04-01T22:18:50;5.15;;;2.70;;
55537;SDS011;41383;51.418;7.286;2023-04-01T22:21:39;3.47;;;1.95;;
55537;SDS011;41383;51.418;7.286;2023-04-01T22:24:28;3.72;;;2.33;;
55537;SDS011;41383;51.418;7.286;2023-04-01T22:27:01;4.60;;;2.30;;
55537;SDS011;41383;51.418;7.286;2023-04-01T22:32:28;4.72;;;2.08;;
55537;SDS011;41383;51.418;7.286;2023-04-01T22:35:10;3.58;;;1.92;;
55537;SDS011;41383;51.418;7.286;2023-04-01T22:40:31;7.03;;;4.07;;
55537;SDS011;41383;51.418;7.286;2023-04-01T22:43:06;6.93;;;3.80;;
55537;SDS011;41383;51.418;7.286;2023-04-01T22:45:40;6.18;;;3.13;;
55537;SDS011;41383;51.418;7.286;2023-04-01T22:51:10;5.50;;;2.72;;
55537;SDS011;41383;51.418;7.286;2023-04-01T22:56:36;4.85;;;2.25;;
55537;SDS011;41383;51.418;7.286;2023-04-01T22:59:19;4.63;;;2.55;;
55537;SDS011;41383;51.418;7.286;2023-04-01T23:01:53;4.65;;;2.70;;
55537;SDS011;41383;51.418;7.286;2023-04-01T23:04:35;5.30;;;2.47;;
55537;SDS011;41383;51.418;7.286;2023-04-01T23:07:07;6.57;;;3.13;;
55537;SDS011;41383;51.418;7.286;2023-04-01T23:09:57;5.57;;;2.73;;
55537;SDS011;41383;51.418;7.286;2023-04-01T23:12:26;7.55;;;3.70;;
55537;SDS011;41383;51.418;7.286;2023-04-01T23:14:57;5.78;;;2.88;;
55537;SDS011;41383;51.418;7.286;2023-04-01T23:20:20;9.07;;;4.18;;
55537;SDS011;41383;51.418;7.286;2023-04-01T23:26:04;3.22;;;1.38;;
55537;SDS011;41383;51.418;7.286;2023-04-01T23:28:43;4.07;;;2.22;;
55537;SDS011;41383;51.418;7.286;2023-04-01T23:34:38;4.13;;;1.70;;
55537;SDS011;41383;51.418;7.286;2023-04-01T23:36:42;4.63;;;1.55;;
55537;SDS011;41383;51.418;7.286;2023-04-01T23:42:42;4.63;;;2.28;;
55537;SDS011;41383;51.418;7.286;2023-04-01T23:44:45;3.50;;;1.98;;
55537;SDS011;41383;51.418;7.286;2023-04-01T23:50:11;4.20;;;2.42;;
55537;SDS011;41383;51.418;7.286;2023-04-01T23:52:46;5.35;;;2.58;;
55537;SDS011;41383;51.418;7.286;2023-04-01T23:55:16;4.18;;;2.00;;
55537;SDS011;41383;51.418;7.286;2023-04-01T23:58:00;5.10;;;2.53;;
